Time;durP1;ratioP1;P1;durP2;ratioP2;P2;SDS_P1;SDS_P2;PMS_P1;PMS_P2;Temp;Humidity;BMP_temperature;BMP_pressure;BME280_temperature;BME280_humidity;BME280_pressure;Samples;Min_cycle;Max_cycle;Signal;HPM_P1;HPM_P2
2022/09/03 03:02:21;;;;;;;2.85;0.20;;;17.20;88.30;;;;;;5423732;23;90330;-73
2022/09/03 03:04:47;;;;;;;1.40;0.20;;;17.10;89.20;;;;;;4915430;28;87300;-73
2022/09/03 03:07:12;;;;;;;1.55;0.20;;;17.10;88.90;;;;;;4916365;28;87045;-73
2022/09/03 03:09:38;;;;;;;2.45;0.30;;;17.10;89.40;;;;;;4918199;28;86576;-73
2022/09/03 03:12:04;;;;;;;1.08;0.20;;;17.10;88.70;;;;;;4915659;28;87238;-72
2022/09/03 03:14:30;;;;;;;1.92;0.30;;;17.10;88.30;;;;;;4919181;28;88202;-72
2022/09/03 03:16:55;;;;;;;0.98;0.10;;;17.20;89.40;;;;;;4908241;28;86170;-73
2022/09/03 03:19:21;;;;;;;1.50;0.10;;;17.20;89.20;;;;;;4916090;28;85631;-73
2022/09/03 03:21:46;;;;;;;3.33;0.20;;;17.40;89.80;;;;;;4919057;28;87373;-72
2022/09/03 03:24:12;;;;;;;0.82;0.20;;;17.50;87.50;;;;;;4916585;28;86582;-73
2022/09/03 03:26:38;;;;;;;0.40;0.10;;;17.50;88.50;;;;;;4918733;28;87305;-71
2022/09/03 03:29:04;;;;;;;0.70;0.10;;;17.50;88.10;;;;;;4917633;28;86702;-71
2022/09/03 03:31:30;;;;;;;3.03;0.20;;;17.50;87.90;;;;;;4919003;28;87204;-72
2022/09/03 03:34:01;;;;;;;1.13;0.10;;;17.50;88.00;;;;;;4915541;28;86370;-71
2022/09/03 03:36:30;;;;;;;1.33;0.30;;;17.40;88.20;;;;;;4918133;28;86857;-72
2022/09/03 03:38:57;;;;;;;0.60;0.10;;;17.50;87.50;;;;;;4918954;28;86516;-72
2022/09/03 03:41:32;;;;;;;1.45;0.10;;;17.60;86.90;;;;;;4917693;28;86757;-71
2022/09/03 03:44:03;;;;;;;1.58;0.20;;;17.60;88.30;;;;;;4917632;28;86685;-71
2022/09/03 03:46:38;;;;;;;0.63;0.10;;;17.70;88.00;;;;;;4919141;28;86263;-71
2022/09/03 03:49:05;;;;;;;1.60;0.20;;;17.60;90.50;;;;;;4915686;28;87239;-72
2022/09/03 03:51:31;;;;;;;0.50;0.10;;;17.50;90.50;;;;;;4902575;28;88067;-71
2022/09/03 03:53:57;;;;;;;0.95;0.20;;;17.50;90.30;;;;;;4918373;28;88019;-71
2022/09/03 03:56:25;;;;;;;0.60;0.10;;;17.40;90.50;;;;;;4918561;28;86581;-70
2022/09/03 03:58:51;;;;;;;1.02;0.13;;;17.40;90.10;;;;;;4906456;28;86640;-72
2022/09/03 04:01:22;;;;;;;2.55;0.20;;;17.50;90.00;;;;;;4901007;28;87915;-72
2022/09/03 04:03:47;;;;;;;0.90;0.20;;;17.40;90.40;;;;;;4913669;28;86497;-71
2022/09/03 04:06:16;;;;;;;3.08;0.20;;;17.40;90.20;;;;;;4913373;28;86279;-72
2022/09/03 04:08:43;;;;;;;1.13;0.10;;;17.40;90.60;;;;;;4916851;28;86608;-72
2022/09/03 04:11:10;;;;;;;0.32;0.10;;;17.50;89.60;;;;;;4915123;28;86601;-73
2022/09/03 04:13:39;;;;;;;0.70;0.10;;;17.50;90.00;;;;;;4926073;28;87003;-73
2022/09/03 04:16:08;;;;;;;2.25;0.43;;;17.50;89.50;;;;;;4906645;28;87820;-73
2022/09/03 04:18:34;;;;;;;0.95;0.10;;;17.40;90.70;;;;;;4916323;28;86887;-72
2022/09/03 04:21:07;;;;;;;2.00;0.15;;;17.40;89.50;;;;;;4914855;28;87218;-72
2022/09/03 04:23:34;;;;;;;1.88;0.10;;;17.50;88.40;;;;;;4916574;28;87381;-72
2022/09/03 04:26:01;;;;;;;0.70;0.10;;;17.50;88.10;;;;;;4917757;28;86316;-71
2022/09/03 04:28:27;;;;;;;1.77;0.20;;;17.60;88.50;;;;;;4917723;28;86320;-72
2022/09/03 04:30:53;;;;;;;0.80;0.10;;;17.60;88.70;;;;;;4914653;28;87248;-71
2022/09/03 04:33:19;;;;;;;0.88;0.20;;;17.60;89.30;;;;;;4919132;28;87358;-70
2022/09/03 04:35:45;;;;;;;0.73;0.10;;;17.50;89.80;;;;;;4918855;28;87095;-71
2022/09/03 04:38:11;;;;;;;2.63;0.20;;;17.40;90.40;;;;;;4920046;28;86577;-72
2022/09/03 04:40:37;;;;;;;1.58;0.10;;;17.30;90.90;;;;;;4919462;28;88212;-72
2022/09/03 04:43:03;;;;;;;1.35;0.10;;;17.30;90.40;;;;;;4920692;28;87389;-72
2022/09/03 04:45:29;;;;;;;0.63;0.10;;;17.40;90.20;;;;;;4918377;28;86732;-72
2022/09/03 04:48:01;;;;;;;0.70;0.10;;;17.30;90.50;;;;;;4918907;28;86756;-72
2022/09/03 04:50:28;;;;;;;0.88;0.10;;;17.50;90.20;;;;;;4918497;28;86954;-72
2022/09/03 04:53:01;;;;;;;4.10;0.20;;;17.50;89.90;;;;;;4920352;28;86296;-71
2022/09/03 04:55:27;;;;;;;1.45;0.10;;;17.60;89.10;;;;;;4923067;28;86585;-71
2022/09/03 04:57:53;;;;;;;0.88;0.10;;;17.70;86.10;;;;;;4925530;28;85659;-72
2022/09/03 05:00:19;;;;;;;0.82;0.10;;;17.70;85.90;;;;;;4914504;28;86731;-72
2022/09/03 05:02:50;;;;;;;0.57;0.10;;;17.80;86.50;;;;;;4920448;28;87440;-72
2022/09/03 05:05:16;;;;;;;1.95;0.10;;;17.90;85.90;;;;;;4919306;28;87426;-71
2022/09/03 05:07:42;;;;;;;0.68;0.20;;;17.90;84.40;;;;;;4919509;28;87109;-72
2022/09/03 05:10:19;;;;;;;1.30;0.10;;;18.00;85.10;;;;;;4918583;28;86638;-72
2022/09/03 05:12:58;;;;;;;0.95;0.10;;;17.90;84.70;;;;;;4920774;28;87043;-71
2022/09/03 05:15:24;;;;;;;0.90;0.30;;;17.90;85.10;;;;;;4919895;28;87772;-71
2022/09/03 05:17:54;;;;;;;0.65;0.10;;;17.90;86.30;;;;;;4920571;28;86531;-70
2022/09/03 05:20:20;;;;;;;1.55;0.10;;;17.80;86.50;;;;;;4916195;28;87190;-71
2022/09/03 05:22:46;;;;;;;1.88;0.10;;;17.70;86.40;;;;;;4916693;28;87243;-71
2022/09/03 05:25:11;;;;;;;0.68;0.10;;;17.70;88.40;;;;;;4917779;28;87106;-71
2022/09/03 05:27:37;;;;;;;1.40;0.20;;;17.70;88.50;;;;;;4920816;28;86917;-70
2022/09/03 05:30:03;;;;;;;0.55;0.13;;;17.70;88.60;;;;;;4918877;28;87751;-72
2022/09/03 05:32:30;;;;;;;0.95;0.20;;;17.70;88.90;;;;;;4915514;28;87921;-72
2022/09/03 05:34:55;;;;;;;2.70;0.20;;;17.70;87.90;;;;;;4920285;28;86331;-72
2022/09/03 05:37:22;;;;;;;0.30;0.00;;;17.70;88.00;;;;;;4912983;28;86562;-72
2022/09/03 05:39:48;;;;;;;0.70;0.10;;;18.00;87.10;;;;;;4911907;28;87551;-72
2022/09/03 05:42:14;;;;;;;0.75;0.10;;;18.00;87.70;;;;;;4916050;28;87122;-72
2022/09/03 05:44:39;;;;;;;2.10;0.10;;;18.10;88.00;;;;;;4924194;28;86650;-72
2022/09/03 05:47:05;;;;;;;0.30;0.10;;;18.20;87.40;;;;;;4919607;28;85630;-70
2022/09/03 05:49:31;;;;;;;1.17;0.10;;;18.30;86.90;;;;;;4921496;28;87238;-72
2022/09/03 05:51:57;;;;;;;0.50;0.10;;;18.40;86.30;;;;;;4917474;28;87265;-72
2022/09/03 05:54:23;;;;;;;3.03;0.22;;;18.60;86.00;;;;;;4919006;28;87912;-71
2022/09/03 05:56:49;;;;;;;2.25;0.30;;;18.70;85.50;;;;;;4917885;28;86965;-71
2022/09/03 05:59:14;;;;;;;0.98;0.25;;;18.80;85.60;;;;;;4918561;28;87244;-70
2022/09/03 06:01:42;;;;;;;2.25;0.20;;;18.80;85.90;;;;;;4916904;28;87405;-71
2022/09/03 06:04:13;;;;;;;2.80;0.30;;;19.00;84.60;;;;;;4917264;28;86856;-71
2022/09/03 06:06:42;;;;;;;1.90;0.17;;;19.20;84.30;;;;;;4909932;28;86696;-71
2022/09/03 06:09:13;;;;;;;0.55;0.13;;;19.30;83.20;;;;;;4913328;28;86842;-71
2022/09/03 06:11:41;;;;;;;1.38;0.13;;;19.20;83.90;;;;;;4913660;28;87725;-72
2022/09/03 06:14:09;;;;;;;0.90;0.13;;;19.50;82.70;;;;;;4917570;28;86925;-71
2022/09/03 06:16:43;;;;;;;0.60;0.10;;;19.70;80.90;;;;;;4913782;28;87183;-71
2022/09/03 06:19:09;;;;;;;1.17;0.20;;;19.90;80.50;;;;;;4908870;28;88182;-72
2022/09/03 06:21:43;;;;;;;2.25;0.20;;;20.10;79.50;;;;;;4917151;28;87409;-71
2022/09/03 06:24:18;;;;;;;1.33;0.30;;;20.20;78.90;;;;;;4913590;28;86579;-69
2022/09/03 06:26:44;;;;;;;1.40;0.30;;;21.30;78.10;;;;;;4911367;28;86776;-66
2022/09/03 06:29:10;;;;;;;1.90;0.20;;;22.10;73.80;;;;;;4911275;28;86584;-66
2022/09/03 06:31:36;;;;;;;1.00;0.60;;;22.20;73.00;;;;;;4908944;28;87419;-68
2022/09/03 06:34:02;;;;;;;4.47;0.40;;;22.30;70.80;;;;;;4916953;28;86392;-66
2022/09/03 06:36:28;;;;;;;1.60;0.20;;;22.70;71.00;;;;;;4913835;28;86346;-67
2022/09/03 06:38:55;;;;;;;1.98;0.32;;;23.90;67.40;;;;;;4914133;28;87251;-67
2022/09/03 06:41:24;;;;;;;1.35;0.30;;;24.90;64.40;;;;;;4916687;28;87069;-70
2022/09/03 06:43:52;;;;;;;0.77;0.35;;;24.80;64.00;;;;;;4912869;28;87910;-66
2022/09/03 06:46:20;;;;;;;3.45;0.22;;;24.40;65.20;;;;;;4919830;28;86296;-67
2022/09/03 06:48:47;;;;;;;1.77;0.32;;;23.80;63.60;;;;;;4916849;28;87254;-68
2022/09/03 06:51:15;;;;;;;0.85;0.20;;;23.10;66.70;;;;;;4918137;28;86947;-66
2022/09/03 06:53:46;;;;;;;4.20;0.22;;;22.60;67.80;;;;;;4915301;28;86605;-68
2022/09/03 06:56:15;;;;;;;0.73;0.22;;;22.30;72.20;;;;;;4912224;28;86918;-68
2022/09/03 06:58:51;;;;;;;2.83;0.10;;;22.30;70.20;;;;;;4918972;28;87300;-68
2022/09/03 07:01:24;;;;;;;;;;;22.70;69.30;;;;;;4919046;28;87351;-67
2022/09/03 07:03:55;;;;;;;1.85;0.50;;;23.40;68.80;;;;;;4917717;28;87003;-68
2022/09/03 07:06:23;;;;;;;3.33;0.50;;;26.30;61.00;;;;;;4905471;28;86329;-68
2022/09/03 07:08:48;;;;;;;2.38;0.43;;;28.80;57.70;;;;;;4916542;28;87554;-69
2022/09/03 07:11:18;;;;;;;1.20;0.50;;;29.50;53.60;;;;;;4912136;28;87640;-67
2022/09/03 07:13:46;;;;;;;0.98;0.52;;;28.10;54.10;;;;;;4907235;28;86735;-68
2022/09/03 07:16:25;;;;;;;1.35;0.43;;;27.00;56.70;;;;;;4912349;28;86597;-66
2022/09/03 07:18:51;;;;;;;1.13;0.43;;;26.00;59.60;;;;;;4915930;28;87068;-67
2022/09/03 07:21:23;;;;;;;1.38;0.90;;;25.50;59.40;;;;;;4912739;28;87239;-68
2022/09/03 07:23:50;;;;;;;5.45;0.47;;;24.80;62.00;;;;;;4913159;28;86872;-68
2022/09/03 07:26:37;;;;;;;2.97;0.43;;;24.80;63.00;;;;;;4911057;28;86769;-67
2022/09/03 07:29:06;;;;;;;2.28;0.52;;;24.50;63.20;;;;;;4906346;28;88313;-68
2022/09/03 07:31:36;;;;;;;;;;;24.30;63.50;;;;;;4910838;28;86880;-69
2022/09/03 07:34:05;;;;;;;1.02;0.30;;;24.00;64.10;;;;;;4909206;28;87992;-67
2022/09/03 07:36:37;;;;;;;1.27;0.30;;;23.40;66.40;;;;;;4911595;28;87696;-67
2022/09/03 07:39:04;;;;;;;1.50;0.28;;;23.00;69.10;;;;;;4917497;28;87599;-67
2022/09/03 07:41:32;;;;;;;1.30;0.32;;;23.20;69.40;;;;;;4913128;28;87278;-67
2022/09/03 07:43:58;;;;;;;0.43;0.15;;;23.40;66.60;;;;;;4910615;28;88649;-71
2022/09/03 07:46:26;;;;;;;1.80;0.50;;;23.20;68.20;;;;;;4913190;28;86765;-68
2022/09/03 07:48:53;;;;;;;2.25;0.28;;;23.90;66.30;;;;;;4918465;28;86976;-68
2022/09/03 07:51:21;;;;;;;2.08;0.43;;;24.20;66.10;;;;;;4916029;28;86331;-67
2022/09/03 07:53:47;;;;;;;4.75;0.20;;;24.60;64.80;;;;;;4913444;28;86730;-71
2022/09/03 07:56:14;;;;;;;1.92;0.40;;;24.80;63.10;;;;;;4907169;28;87103;-67
2022/09/03 07:58:41;;;;;;;1.35;0.43;;;24.50;63.20;;;;;;4904767;28;87807;-68
2022/09/03 08:01:12;;;;;;;1.00;0.25;;;24.10;65.20;;;;;;4910348;28;87842;-68
2022/09/03 08:03:43;;;;;;;1.48;0.30;;;24.70;63.90;;;;;;4910768;28;86795;-67
2022/09/03 08:06:09;;;;;;;1.00;0.35;;;25.70;61.40;;;;;;4908373;28;86940;-66
2022/09/03 08:08:36;;;;;;;2.88;0.40;;;27.80;57.00;;;;;;4915671;28;87229;-70
2022/09/03 08:11:09;;;;;;;1.85;0.52;;;29.80;53.90;;;;;;4918178;28;86733;-70
2022/09/03 08:14:02;;;;;;;3.53;0.40;;;30.40;50.80;;;;;;4917804;28;86374;-67
2022/09/03 08:16:30;;;;;;;1.20;0.43;;;32.60;48.60;;;;;;4919776;28;86757;-71
2022/09/03 08:18:56;;;;;;;0.85;0.50;;;34.30;46.70;;;;;;4918104;28;86512;-70
2022/09/03 08:21:22;;;;;;;1.80;0.60;;;37.10;44.30;;;;;;4919001;28;86710;-71
2022/09/03 08:23:50;;;;;;;3.65;0.85;;;40.00;39.50;;;;;;4913146;28;88016;-71
2022/09/03 08:26:18;;;;;;;2.88;1.25;;;41.90;38.10;;;;;;4913747;28;86283;-71
2022/09/03 08:28:44;;;;;;;1.90;0.80;;;41.40;36.80;;;;;;4915982;28;87784;-71
2022/09/03 08:31:13;;;;;;;3.38;1.42;;;41.90;35.60;;;;;;4916383;28;87969;-71
2022/09/03 08:33:41;;;;;;;3.03;2.60;;;41.90;35.00;;;;;;4909103;28;87496;-71
2022/09/03 08:36:07;;;;;;;2.25;1.38;;;42.60;34.20;;;;;;4919142;28;87553;-70
2022/09/03 08:38:35;;;;;;;2.05;1.85;;;43.40;32.80;;;;;;4917561;28;86698;-69
2022/09/03 08:41:32;;;;;;;1.70;1.17;;;43.40;33.70;;;;;;4912650;28;86895;-69
2022/09/03 08:44:00;;;;;;;2.30;2.08;;;43.90;33.30;;;;;;4918865;28;86571;-69
2022/09/03 08:46:39;;;;;;;3.17;1.65;;;43.80;34.10;;;;;;4915706;28;86772;-70
2022/09/03 08:49:09;;;;;;;1.95;1.58;;;44.20;32.00;;;;;;4919861;28;88063;-68
2022/09/03 08:51:39;;;;;;;8.90;3.05;;;44.50;32.10;;;;;;4914720;28;89263;-68
2022/09/03 08:54:07;;;;;;;2.22;2.03;;;44.80;32.30;;;;;;4918031;28;86976;-68
2022/09/03 08:56:37;;;;;;;5.57;2.47;;;45.70;31.10;;;;;;4913507;28;86299;-68
2022/09/03 08:59:04;;;;;;;3.13;2.33;;;45.60;31.40;;;;;;4918582;28;87225;-69
2022/09/03 09:01:35;;;;;;;3.90;1.80;;;45.30;30.30;;;;;;4915851;28;87017;-68
2022/09/03 09:04:07;;;;;;;4.82;4.43;;;44.30;32.70;;;;;;4918742;28;86799;-68
2022/09/03 09:06:57;;;;;;;7.22;2.10;;;43.10;32.40;;;;;;4919629;28;85854;-69
2022/09/03 09:09:38;;;;;;;3.80;2.53;;;44.30;32.30;;;;;;4910667;28;87577;-68
2022/09/03 09:12:16;;;;;;;3.63;2.25;;;45.80;30.90;;;;;;4917126;28;86998;-68
2022/09/03 09:15:13;;;;;;;5.35;2.25;;;45.60;30.60;;;;;;4915691;28;88157;-69
2022/09/03 09:18:20;;;;;;;2.58;1.83;;;44.30;30.90;;;;;;4917657;28;86769;-68
2022/09/03 09:20:48;;;;;;;2.90;2.15;;;45.10;31.00;;;;;;4851846;29;86571;-69
2022/09/03 09:23:44;;;;;;;3.72;2.08;;;41.90;33.10;;;;;;4902946;28;87476;-68
2022/09/03 09:26:14;;;;;;;5.03;3.08;;;39.30;34.00;;;;;;4914281;28;87021;-71
2022/09/03 09:28:41;;;;;;;2.08;1.80;;;38.20;35.00;;;;;;4917047;28;86790;-70
2022/09/03 09:31:11;;;;;;;2.50;1.60;;;37.00;36.70;;;;;;4913800;28;87421;-72
2022/09/03 09:33:37;;;;;;;8.00;1.27;;;36.00;38.70;;;;;;4919134;28;86222;-71
2022/09/03 09:36:07;;;;;;;3.25;1.55;;;36.90;37.90;;;;;;4918908;28;86909;-71
2022/09/03 09:38:35;;;;;;;2.13;1.33;;;36.50;38.00;;;;;;4918605;28;87373;-71
2022/09/03 09:41:11;;;;;;;;;;;38.40;37.90;;;;;;4916475;28;87738;-69
2022/09/03 09:43:38;;;;;;;4.22;1.42;;;40.70;34.40;;;;;;4919009;28;87554;-72
2022/09/03 09:46:20;;;;;;;3.22;1.13;;;41.40;34.10;;;;;;4918878;28;87651;-71
2022/09/03 09:48:57;;;;;;;2.60;1.27;;;42.00;34.00;;;;;;4908090;28;86907;-71
2022/09/03 09:51:29;;;;;;;2.78;1.63;;;42.70;33.60;;;;;;4918001;28;86922;-69
2022/09/03 09:54:01;;;;;;;3.10;2.28;;;44.20;32.30;;;;;;4906551;28;87040;-69
2022/09/03 09:56:27;;;;;;;4.10;2.05;;;43.40;30.30;;;;;;4911841;28;88105;-69
2022/09/03 09:59:06;;;;;;;2.35;1.15;;;38.00;35.00;;;;;;4918899;28;86063;-71
2022/09/03 10:01:33;;;;;;;1.90;1.00;;;35.30;38.30;;;;;;4917331;28;86739;-71
2022/09/03 10:04:07;;;;;;;1.75;0.88;;;35.50;39.10;;;;;;4917162;28;86623;-70
2022/09/03 10:06:52;;;;;;;3.65;0.88;;;36.10;38.20;;;;;;4917411;28;87195;-71
2022/09/03 10:09:24;;;;;;;4.15;0.70;;;37.00;38.30;;;;;;4917952;28;86864;-69
2022/09/03 10:12:38;;;;;;;1.75;0.93;;;40.00;34.80;;;;;;4913582;28;87207;-68
2022/09/03 10:15:11;;;;;;;1.60;1.17;;;39.50;35.00;;;;;;4839082;29;86882;-69
2022/09/03 10:17:48;;;;;;;2.60;1.27;;;38.70;36.00;;;;;;4912181;28;86346;-71
2022/09/03 10:20:32;;;;;;;8.02;0.98;;;38.30;37.00;;;;;;4914564;28;86983;-70
2022/09/03 10:23:14;;;;;;;2.25;1.45;;;37.60;36.70;;;;;;4915807;28;87665;-70
2022/09/03 10:25:52;;;;;;;5.00;1.73;;;37.20;37.80;;;;;;4911440;28;87431;-71
2022/09/03 10:28:24;;;;;;;2.80;1.05;;;36.60;37.90;;;;;;4912580;28;87051;-69
2022/09/03 10:31:07;;;;;;;1.55;0.80;;;35.20;39.20;;;;;;4915603;28;86592;-70
2022/09/03 10:33:43;;;;;;;3.83;1.80;;;32.60;41.40;;;;;;4916373;28;88394;-69
2022/09/03 10:36:22;;;;;;;2.10;0.68;;;31.50;45.20;;;;;;4913484;28;88756;-71
2022/09/03 10:38:58;;;;;;;2.38;0.90;;;31.60;45.10;;;;;;4910961;28;86299;-70
2022/09/03 10:42:01;;;;;;;2.25;0.77;;;31.80;44.40;;;;;;4916430;28;87326;-70
2022/09/03 10:45:00;;;;;;;0.80;0.45;;;32.10;44.50;;;;;;4914943;28;88091;-70
2022/09/03 10:47:44;;;;;;;3.28;0.65;;;31.80;43.10;;;;;;4915258;28;87058;-70
2022/09/03 10:50:16;;;;;;;1.55;0.77;;;31.90;44.50;;;;;;4916355;28;86807;-69
2022/09/03 10:53:15;;;;;;;4.40;0.63;;;31.80;45.70;;;;;;4916471;28;85677;-69
2022/09/03 10:56:07;;;;;;;0.90;0.57;;;31.60;47.30;;;;;;4909673;28;86733;-70
2022/09/03 10:58:58;;;;;;;1.50;0.50;;;31.20;47.50;;;;;;4915940;28;86818;-70
2022/09/03 11:01:59;;;;;;;2.00;0.50;;;30.80;48.50;;;;;;4916305;28;87460;-69
2022/09/03 11:04:43;;;;;;;2.67;0.63;;;30.30;49.80;;;;;;4913676;28;87266;-69
2022/09/03 11:07:12;;;;;;;1.23;0.60;;;30.60;48.90;;;;;;4915050;28;87579;-70
2022/09/03 11:09:49;;;;;;;1.15;0.50;;;30.30;49.10;;;;;;4916525;28;86705;-70
2022/09/03 11:12:31;;;;;;;0.93;0.52;;;30.10;49.40;;;;;;4914319;28;87168;-70
2022/09/03 11:15:34;;;;;;;1.30;0.52;;;28.90;50.80;;;;;;4916883;28;87096;-70
2022/09/03 11:18:22;;;;;;;0.80;0.32;;;28.30;52.60;;;;;;4909262;28;87202;-69
2022/09/03 11:20:52;;;;;;;1.13;0.47;;;27.60;53.20;;;;;;4916698;28;87309;-70
2022/09/03 11:23:18;;;;;;;2.50;1.23;;;26.80;55.80;;;;;;4916650;28;86527;-70
2022/09/03 11:25:53;;;;;;;1.10;0.32;;;26.50;56.50;;;;;;4915214;28;86503;-69
2022/09/03 11:28:22;;;;;;;1.33;0.40;;;25.80;57.70;;;;;;4914785;28;88194;-69
2022/09/03 11:31:32;;;;;;;2.03;0.40;;;25.20;60.10;;;;;;4917255;28;87216;-68
2022/09/03 11:34:15;;;;;;;0.93;0.40;;;24.50;64.70;;;;;;4889503;28;86378;-68
2022/09/03 11:36:41;;;;;;;1.23;0.40;;;23.90;67.80;;;;;;4896245;28;86282;-69
2022/09/03 11:39:57;;;;;;;1.60;0.30;;;23.30;70.40;;;;;;4908752;28;88174;-68
2022/09/03 11:42:33;;;;;;;1.63;0.32;;;23.30;72.30;;;;;;4837540;29;86913;-69
2022/09/03 11:45:13;;;;;;;2.33;0.30;;;23.10;72.10;;;;;;4837510;29;86774;-69
2022/09/03 11:47:44;;;;;;;1.58;0.40;;;22.90;71.80;;;;;;4893257;28;86098;-68
2022/09/03 11:50:20;;;;;;;1.50;0.50;;;22.80;73.20;;;;;;4916393;28;88255;-69
2022/09/03 11:53:06;;;;;;;3.88;0.43;;;22.60;73.90;;;;;;4916300;28;86716;-70
2022/09/03 11:55:44;;;;;;;2.55;0.32;;;22.20;76.30;;;;;;4916090;28;87976;-69
2022/09/03 11:58:34;;;;;;;1.23;0.40;;;22.20;75.30;;;;;;4914703;28;87070;-69
2022/09/03 12:01:03;;;;;;;1.23;0.40;;;21.90;75.90;;;;;;4916035;28;87151;-68
2022/09/03 12:03:40;;;;;;;1.60;0.45;;;21.60;78.20;;;;;;4914275;28;86541;-69
2022/09/03 12:06:11;;;;;;;2.30;0.50;;;20.90;84.10;;;;;;4913019;28;86474;-68
2022/09/03 12:09:01;;;;;;;1.70;0.30;;;20.40;90.70;;;;;;4916307;28;86220;-69
2022/09/03 12:11:52;;;;;;;1.40;0.30;;;20.60;86.80;;;;;;4914331;28;87521;-70
2022/09/03 12:14:40;;;;;;;1.48;0.50;;;20.70;83.30;;;;;;4916613;28;86190;-69
2022/09/03 12:17:29;;;;;;;1.60;0.50;;;19.70;91.00;;;;;;4907497;28;86293;-69
2022/09/03 12:19:57;;;;;;;3.40;0.40;;;19.20;94.90;;;;;;4904702;28;87260;-70
2022/09/03 12:22:27;;;;;;;2.45;0.50;;;18.90;98.70;;;;;;4911544;28;90144;-69
2022/09/03 12:24:53;;;;;;;2.00;0.30;;;19.00;99.90;;;;;;4915607;28;87723;-69
2022/09/03 12:27:26;;;;;;;3.58;0.73;;;19.60;99.90;;;;;;4911191;28;86804;-68
2022/09/03 12:30:00;;;;;;;5.15;0.50;;;20.00;99.80;;;;;;4913155;28;86932;-68
2022/09/03 12:32:36;;;;;;;1.73;0.40;;;19.90;95.60;;;;;;4906567;28;88440;-69
2022/09/03 12:35:14;;;;;;;2.10;0.30;;;19.90;98.00;;;;;;4907268;28;86336;-69
2022/09/03 12:37:44;;;;;;;1.67;0.50;;;19.40;99.80;;;;;;4916687;28;86306;-69
2022/09/03 12:40:22;;;;;;;2.35;0.43;;;18.40;99.90;;;;;;4908242;28;86126;-70
2022/09/03 12:42:48;;;;;;;3.30;0.43;;;18.00;99.90;;;;;;4911301;28;87660;-71
2022/09/03 12:45:22;;;;;;;2.00;0.30;;;18.10;99.90;;;;;;4912191;28;86912;-70
2022/09/03 12:47:49;;;;;;;1.83;0.50;;;18.20;99.90;;;;;;4910436;28;88476;-71
2022/09/03 12:50:18;;;;;;;1.98;0.32;;;18.40;99.90;;;;;;4911670;28;87645;-71
2022/09/03 12:52:46;;;;;;;1.92;0.50;;;18.80;99.90;;;;;;4916251;28;87568;-71
2022/09/03 12:55:35;;;;;;;2.30;0.40;;;18.80;99.90;;;;;;4901270;28;90022;-70
2022/09/03 12:58:14;;;;;;;2.58;0.40;;;18.80;99.90;;;;;;4918411;28;86838;-71
2022/09/03 13:01:02;;;;;;;1.58;0.22;;;19.20;99.90;;;;;;4914727;28;87303;-71
2022/09/03 13:03:53;;;;;;;3.03;0.20;;;19.90;99.90;;;;;;4912661;28;88807;-70
2022/09/03 13:06:28;;;;;;;2.17;0.35;;;20.40;99.90;;;;;;4911862;28;86342;-71
2022/09/03 13:09:00;;;;;;;1.10;0.22;;;21.10;99.90;;;;;;4919502;28;86265;-71
2022/09/03 13:11:31;;;;;;;3.58;0.55;;;21.60;98.70;;;;;;4914417;28;86301;-71
2022/09/03 13:14:09;;;;;;;5.70;0.60;;;22.00;97.40;;;;;;4913636;28;88661;-71
2022/09/03 13:16:44;;;;;;;1.63;0.55;;;22.50;96.30;;;;;;4912312;28;88775;-71
2022/09/03 13:19:44;;;;;;;1.20;0.25;;;23.00;93.10;;;;;;4912934;28;87128;-71
2022/09/03 13:22:21;;;;;;;2.35;0.50;;;23.20;91.50;;;;;;4916508;28;87062;-70
2022/09/03 13:25:06;;;;;;;1.95;1.08;;;23.30;87.80;;;;;;4914765;28;87073;-70
2022/09/03 13:27:58;;;;;;;1.70;0.40;;;22.80;89.60;;;;;;4914118;28;87271;-71
2022/09/03 13:30:42;;;;;;;1.98;0.30;;;22.80;91.10;;;;;;4913874;28;86963;-71
2022/09/03 13:33:34;;;;;;;1.42;0.22;;;22.90;86.70;;;;;;4913214;28;86115;-70
2022/09/03 13:36:13;;;;;;;2.78;0.50;;;23.10;85.00;;;;;;4914124;28;87438;-71
2022/09/03 13:38:45;;;;;;;2.95;0.47;;;22.80;81.70;;;;;;4912510;28;87498;-70
2022/09/03 13:41:40;;;;;;;0.95;0.57;;;22.60;85.70;;;;;;4913718;28;87967;-71
2022/09/03 13:44:34;;;;;;;1.45;0.10;;;22.70;83.40;;;;;;4908829;28;86740;-70
2022/09/03 13:47:23;;;;;;;2.30;0.45;;;22.20;84.60;;;;;;4910618;28;87056;-71
2022/09/03 13:53:16;;;;;;;0.80;0.20;;;22.30;86.00;;;;;;4910000;28;87263;-72
2022/09/03 13:55:48;;;;;;;1.17;0.20;;;22.70;83.80;;;;;;4902960;28;86697;-72
2022/09/03 13:58:31;;;;;;;2.58;0.30;;;22.80;82.50;;;;;;4913282;28;87189;-72
2022/09/03 14:00:56;;;;;;;0.75;0.22;;;22.70;82.70;;;;;;4915079;28;86210;-72
2022/09/03 14:03:32;;;;;;;3.78;0.40;;;22.90;82.70;;;;;;4918527;28;86991;-74
2022/09/03 14:06:12;;;;;;;1.02;0.30;;;23.30;82.00;;;;;;4920497;28;87554;-72
2022/09/03 14:09:09;;;;;;;0.80;0.20;;;23.40;77.40;;;;;;4927831;28;87913;-72
2022/09/03 14:12:05;;;;;;;0.73;0.22;;;23.50;77.40;;;;;;4918075;28;87299;-72
2022/09/03 14:14:45;;;;;;;0.47;0.28;;;23.50;76.80;;;;;;4921237;28;86409;-72
2022/09/03 14:17:35;;;;;;;1.52;0.28;;;23.70;77.30;;;;;;4917401;28;86597;-72
2022/09/03 14:20:22;;;;;;;0.85;0.32;;;23.70;75.80;;;;;;4918896;28;86376;-72
2022/09/03 14:23:25;;;;;;;0.60;0.17;;;23.60;76.50;;;;;;4917177;28;87078;-72
2022/09/03 14:25:59;;;;;;;0.63;0.20;;;23.30;76.20;;;;;;4911606;28;86471;-71
2022/09/03 14:28:43;;;;;;;1.42;0.15;;;23.10;78.70;;;;;;4918704;28;85583;-70
2022/09/03 14:31:20;;;;;;;1.00;0.30;;;23.10;78.80;;;;;;4915724;28;87175;-70
2022/09/03 14:33:54;;;;;;;0.70;0.20;;;23.10;79.20;;;;;;4916025;28;87433;-69
2022/09/03 14:36:35;;;;;;;3.95;0.43;;;23.20;78.70;;;;;;4921046;28;87342;-70
2022/09/03 14:39:22;;;;;;;1.75;0.20;;;23.30;77.30;;;;;;4923801;28;86868;-69
2022/09/03 14:41:58;;;;;;;0.60;0.13;;;23.40;76.20;;;;;;4924432;28;87245;-67
2022/09/03 14:44:23;;;;;;;;;;;23.50;77.20;;;;;;4911848;28;87321;-70
2022/09/03 14:46:49;;;;;;;1.60;0.35;;;23.40;75.90;;;;;;4911560;28;87714;-67
2022/09/03 14:49:30;;;;;;;1.40;0.30;;;23.30;78.00;;;;;;4909983;28;86752;-71
2022/09/03 14:52:42;;;;;;;1.45;0.50;;;23.50;77.30;;;;;;4912370;28;87203;-69
2022/09/03 14:55:38;;;;;;;0.60;0.10;;;23.70;76.00;;;;;;4884277;28;86038;-68
2022/09/03 14:58:56;;;;;;;1.90;0.68;;;23.80;77.20;;;;;;4916731;28;86964;-70
2022/09/03 15:01:30;;;;;;;1.55;0.30;;;23.80;74.50;;;;;;4892682;28;87349;-68
2022/09/03 15:03:59;;;;;;;0.60;0.20;;;23.70;75.70;;;;;;4907827;28;88214;-71
2022/09/03 15:06:43;;;;;;;2.78;0.30;;;23.90;75.40;;;;;;4913190;28;88002;-69
2022/09/03 15:09:33;;;;;;;2.58;0.22;;;23.90;75.10;;;;;;4903325;28;87057;-69
2022/09/03 15:12:00;;;;;;;1.23;0.20;;;23.90;75.10;;;;;;4911982;28;87064;-69
2022/09/03 15:14:45;;;;;;;0.70;0.28;;;23.70;74.50;;;;;;4915749;28;87136;-69
2022/09/03 15:17:38;;;;;;;1.15;0.20;;;23.60;74.70;;;;;;4913235;28;88079;-71
2022/09/03 15:20:30;;;;;;;0.55;0.15;;;23.40;73.90;;;;;;4912044;28;86359;-70
2022/09/03 15:23:05;;;;;;;2.00;0.17;;;23.40;75.20;;;;;;4907424;28;86103;-70
2022/09/03 15:25:52;;;;;;;1.40;0.43;;;23.10;75.20;;;;;;4909089;28;87254;-69
2022/09/03 15:28:42;;;;;;;5.28;0.90;;;23.00;76.00;;;;;;4911825;28;86831;-69
2022/09/03 15:31:35;;;;;;;3.15;0.65;;;22.80;76.30;;;;;;4911929;28;87994;-69
2022/09/03 15:34:22;;;;;;;1.27;0.35;;;22.70;76.30;;;;;;4909447;28;88323;-72
2022/09/03 15:36:54;;;;;;;4.93;0.50;;;22.70;76.00;;;;;;4916105;28;87449;-70
2022/09/03 15:39:25;;;;;;;1.13;0.22;;;22.70;75.40;;;;;;4916232;28;86588;-70
2022/09/03 15:41:55;;;;;;;1.90;0.20;;;22.70;76.10;;;;;;4917113;28;86767;-69
2022/09/03 15:44:21;;;;;;;1.02;0.30;;;22.60;77.30;;;;;;4916556;28;87369;-69
2022/09/03 15:46:49;;;;;;;1.10;0.20;;;22.50;78.40;;;;;;4914687;28;87145;-69
2022/09/03 15:49:29;;;;;;;0.95;0.20;;;22.50;77.20;;;;;;4914772;28;86724;-70
2022/09/03 15:52:14;;;;;;;1.15;0.30;;;22.50;77.60;;;;;;4918550;28;86964;-69
2022/09/03 15:54:57;;;;;;;1.85;0.57;;;22.50;77.80;;;;;;4916545;28;87083;-69
2022/09/03 15:57:35;;;;;;;1.70;0.20;;;22.60;78.40;;;;;;4915577;28;87731;-69
2022/09/03 16:00:06;;;;;;;5.93;0.17;;;22.40;77.60;;;;;;4916363;28;87162;-69
2022/09/03 16:02:54;;;;;;;3.20;0.30;;;22.40;78.40;;;;;;4916444;28;86934;-69
2022/09/03 16:05:27;;;;;;;2.47;0.25;;;22.50;78.10;;;;;;4917990;28;86633;-69
2022/09/03 16:08:06;;;;;;;0.70;0.10;;;22.50;78.60;;;;;;4911476;28;87295;-69
2022/09/03 16:10:41;;;;;;;0.63;0.22;;;22.30;79.00;;;;;;4915146;28;86383;-69
2022/09/03 16:13:07;;;;;;;1.95;0.32;;;22.30;78.40;;;;;;4912132;28;86804;-69
2022/09/03 16:15:40;;;;;;;0.82;0.10;;;22.30;78.90;;;;;;4915794;28;85521;-69
2022/09/03 16:18:29;;;;;;;0.88;0.20;;;22.40;78.20;;;;;;4911558;28;87204;-69
2022/09/03 16:21:20;;;;;;;2.40;0.50;;;22.40;78.40;;;;;;4910707;28;87553;-69
2022/09/03 16:23:59;;;;;;;0.80;0.20;;;22.50;77.60;;;;;;4910097;28;87990;-70
2022/09/03 16:26:34;;;;;;;0.47;0.10;;;22.70;76.80;;;;;;4910345;28;87369;-70
2022/09/03 16:29:06;;;;;;;0.40;0.15;;;22.90;76.80;;;;;;4915314;28;87167;-70
2022/09/03 16:31:54;;;;;;;1.15;0.50;;;22.80;75.60;;;;;;4912689;28;86889;-70